createdAt,value
2018-06-20T00:00:54.121Z,9.11
2018-06-20T00:02:03.594Z,9.09
2018-06-20T00:03:13.330Z,9.05
2018-06-20T00:04:23.340Z,8.97
2018-06-20T00:05:32.539Z,8.97
2018-06-20T00:06:42.541Z,8.89
2018-06-20T00:07:52.543Z,8.81
2018-06-20T00:09:02.548Z,8.84
2018-06-20T00:10:12.285Z,8.81
2018-06-20T00:11:21.763Z,8.77
2018-06-20T00:12:31.768Z,8.84
2018-06-20T00:13:41.776Z,8.82
2018-06-20T00:14:51.776Z,8.84
2018-06-20T00:16:01.507Z,8.74
2018-06-20T00:17:10.979Z,8.92
2018-06-20T00:18:20.985Z,8.93
2018-06-20T00:19:30.989Z,8.78
2018-06-20T00:20:41.002Z,8.82
2018-06-20T00:21:50.468Z,8.79
2018-06-20T00:22:59.934Z,8.78
2018-06-20T00:24:09.404Z,8.78
2018-06-20T00:25:18.878Z,8.79
2018-06-20T00:26:28.882Z,8.82
2018-06-20T00:27:38.887Z,8.84
2018-06-20T00:28:48.632Z,8.78
2018-06-20T00:29:58.374Z,8.75
2018-06-20T00:31:08.380Z,8.79
2018-06-20T00:32:17.858Z,8.77
2018-06-20T00:33:27.608Z,8.77
2018-06-20T00:34:37.344Z,8.75
2018-06-20T00:35:46.553Z,8.82
2018-06-20T00:36:56.288Z,8.77
2018-06-20T00:38:06.035Z,8.75
2018-06-20T00:39:16.048Z,8.78
2018-06-20T00:40:26.054Z,8.75
2018-06-20T00:41:35.789Z,8.72
2018-06-20T00:42:45.814Z,8.75
2018-06-20T00:43:55.599Z,8.86
2018-06-20T00:45:05.335Z,8.81
2018-06-20T00:46:15.337Z,8.81
2018-06-20T00:47:25.077Z,8.79
2018-06-20T00:48:35.081Z,8.69
2018-06-20T00:49:44.822Z,8.71
2018-06-20T00:50:54.560Z,8.68
2018-06-20T00:52:04.291Z,8.68
2018-06-20T00:53:14.030Z,8.63
2018-06-20T00:54:23.763Z,8.68
2018-06-20T00:55:33.498Z,8.75
2018-06-20T00:56:43.229Z,8.69
2018-06-20T00:57:53.230Z,8.66
2018-06-20T00:59:03.233Z,8.68
2018-06-20T01:00:12.973Z,8.68
2018-06-20T01:01:22.724Z,8.61
2018-06-20T01:02:32.460Z,8.61
2018-06-20T01:03:42.200Z,8.63
2018-06-20T01:04:51.938Z,8.66
2018-06-20T01:06:01.674Z,8.66
2018-06-20T01:07:10.618Z,8.64
2018-06-20T01:08:20.621Z,8.69
2018-06-20T01:09:30.624Z,8.57
2018-06-20T01:10:40.360Z,8.59
2018-06-20T01:11:50.749Z,8.56
2018-06-20T01:13:01.518Z,8.54
2018-06-20T01:14:11.037Z,8.54
2018-06-20T01:15:20.771Z,8.61
2018-06-20T01:16:30.772Z,8.53
2018-06-20T01:17:40.510Z,8.53
2018-06-20T01:18:50.514Z,8.42
2018-06-20T01:20:00.244Z,8.45
2018-06-20T01:21:10.254Z,8.42
2018-06-20T01:22:20.262Z,8.45
2018-06-20T01:23:29.995Z,8.41
2018-06-20T01:24:40.010Z,8.41
2018-06-20T01:25:50.019Z,8.52
2018-06-20T01:27:00.023Z,8.42
2018-06-20T01:28:09.756Z,8.56
2018-06-20T01:29:19.753Z,8.49
2018-06-20T01:30:29.225Z,8.45
2018-06-20T01:31:38.963Z,8.53
2018-06-20T01:32:48.698Z,8.44
2018-06-20T01:33:58.432Z,8.53
2018-06-20T01:35:08.164Z,8.53
2018-06-20T01:36:18.173Z,8.45
2018-06-20T01:37:27.911Z,8.44
2018-06-20T01:38:37.925Z,8.57
2018-06-20T01:39:47.921Z,8.69
2018-06-20T01:40:58.224Z,8.69
2018-06-20T01:42:08.221Z,8.64
2018-06-20T01:43:18.238Z,8.72
2018-06-20T01:44:27.977Z,8.63
2018-06-20T01:45:37.712Z,8.63
2018-06-20T01:46:47.453Z,8.69
2018-06-20T01:47:56.913Z,8.68
2018-06-20T01:49:06.646Z,8.71
2018-06-20T01:50:16.124Z,8.68
2018-06-20T01:51:25.857Z,8.78
2018-06-20T01:52:35.621Z,8.68
2018-06-20T01:53:45.630Z,8.66
2018-06-20T01:54:55.361Z,8.69
2018-06-20T01:56:05.113Z,8.56
2018-06-20T01:57:14.323Z,8.53
2018-06-20T01:58:24.093Z,8.6
2018-06-20T01:59:34.095Z,8.59
2018-06-20T02:00:44.097Z,8.6
2018-06-20T02:01:54.095Z,8.6
2018-06-20T02:03:03.827Z,8.56
2018-06-20T02:04:13.572Z,8.63
2018-06-20T02:05:23.044Z,8.61
2018-06-20T02:06:32.778Z,8.59
2018-06-20T02:07:42.786Z,8.56
2018-06-20T02:08:52.781Z,8.54
2018-06-20T02:10:02.518Z,8.68
2018-06-20T02:11:11.990Z,8.66
2018-06-20T02:12:21.726Z,8.71
2018-06-20T02:13:31.724Z,8.69
2018-06-20T02:14:41.721Z,8.61
2018-06-20T02:15:51.720Z,8.66
2018-06-20T02:17:01.724Z,8.68
2018-06-20T02:18:11.219Z,8.68
2018-06-20T02:19:20.958Z,8.5
2018-06-20T02:20:30.696Z,8.64
2018-06-20T02:21:40.698Z,8.56
2018-06-20T02:22:50.434Z,8.56
2018-06-20T02:24:00.169Z,8.57
2018-06-20T02:25:09.650Z,8.57
2018-06-20T02:26:19.385Z,8.64
2018-06-20T02:27:28.859Z,8.71
2018-06-20T02:28:38.866Z,8.74
2018-06-20T02:29:48.873Z,8.68
2018-06-20T02:30:58.608Z,8.74
2018-06-20T02:32:08.614Z,8.77
2018-06-20T02:33:18.352Z,8.71
2018-06-20T02:34:28.354Z,8.82
2018-06-20T02:35:38.394Z,8.81
2018-06-20T02:36:48.704Z,8.79
2018-06-20T02:37:58.796Z,8.82
2018-06-20T02:39:08.544Z,8.95
2018-06-20T02:40:18.554Z,8.97
2018-06-20T02:41:28.031Z,9.02
2018-06-20T02:42:37.769Z,9.11
2018-06-20T02:43:47.512Z,9.05
2018-06-20T02:44:57.250Z,9.19
2018-06-20T02:46:06.723Z,9.16
2018-06-20T02:47:16.750Z,9.19
2018-06-20T02:48:26.484Z,9.16
2018-06-20T02:49:36.231Z,9.15
2018-06-20T02:50:46.255Z,9.22
2018-06-20T02:51:56.258Z,9.3
2018-06-20T02:53:05.737Z,9.22
2018-06-20T02:54:15.481Z,9.24
2018-06-20T02:55:25.519Z,9.29
2018-06-20T02:56:35.274Z,9.24
2018-06-20T02:57:45.015Z,9.33
2018-06-20T02:58:55.036Z,9.33
2018-06-20T03:00:05.050Z,9.36
2018-06-20T03:03:47.112Z,9.44
2018-06-20T03:04:56.591Z,9.49
2018-06-20T03:06:06.621Z,9.55
2018-06-20T03:07:16.660Z,9.45
2018-06-20T03:08:26.682Z,9.54
2018-06-20T03:09:36.702Z,9.48
2018-06-20T03:10:46.176Z,9.52
2018-06-20T03:11:55.925Z,9.51
2018-06-20T03:13:05.410Z,9.56
2018-06-20T03:14:15.148Z,9.63
2018-06-20T03:15:24.916Z,9.58
2018-06-20T03:16:34.386Z,9.7
2018-06-20T03:17:44.125Z,9.66
2018-06-20T03:18:54.128Z,9.59
2018-06-20T03:20:03.864Z,9.64
2018-06-20T03:21:13.604Z,9.7
2018-06-20T03:22:23.348Z,9.63
2018-06-20T03:23:33.352Z,9.62
2018-06-20T03:24:43.355Z,9.64
2018-06-20T03:25:53.363Z,9.84
2018-06-20T03:27:03.372Z,9.69
2018-06-20T03:28:13.375Z,9.62
2018-06-20T03:29:23.375Z,9.67
2018-06-20T03:30:32.855Z,9.77
2018-06-20T03:31:42.602Z,9.72
2018-06-20T03:32:52.071Z,9.74
2018-06-20T03:34:01.820Z,9.82
2018-06-20T03:35:11.558Z,9.77
2018-06-20T03:36:21.295Z,9.69
2018-06-20T03:37:31.307Z,9.73
2018-06-20T03:38:41.316Z,9.77
2018-06-20T03:39:51.056Z,9.8
2018-06-20T03:41:01.064Z,9.77
2018-06-20T03:42:11.076Z,9.84
2018-06-20T03:43:20.809Z,9.9
2018-06-20T03:44:30.837Z,9.91
2018-06-20T03:45:40.837Z,9.92
2018-06-20T03:46:50.576Z,9.97
2018-06-20T03:48:00.586Z,10.02
2018-06-20T03:49:10.328Z,10.05
2018-06-20T03:50:20.065Z,10.05
2018-06-20T03:51:29.806Z,10.09
2018-06-20T03:52:39.538Z,10.1
2018-06-20T03:53:49.541Z,10.07
2018-06-20T03:54:59.539Z,10.15
2018-06-20T03:56:08.747Z,10.1
2018-06-20T03:57:18.752Z,10.09
2018-06-20T03:58:28.484Z,10.12
2018-06-20T03:59:38.221Z,10.17
2018-06-20T04:00:47.967Z,10.13
2018-06-20T04:01:57.974Z,10.15
2018-06-20T04:03:07.709Z,10.15
2018-06-20T04:04:17.719Z,10.15
2018-06-20T04:05:27.719Z,10.07
2018-06-20T04:06:37.782Z,10.18
2018-06-20T04:07:47.527Z,10.17
2018-06-20T04:08:57.549Z,10.15
2018-06-20T04:10:07.286Z,10.2
2018-06-20T04:11:17.022Z,10.2
2018-06-20T04:12:27.032Z,10.28
2018-06-20T04:13:36.769Z,10.23
2018-06-20T04:14:46.516Z,10.3
2018-06-20T04:15:56.537Z,10.21
2018-06-20T04:17:06.275Z,10.23
2018-06-20T04:18:16.129Z,10.13
2018-06-20T04:19:26.242Z,10.25
2018-06-20T04:20:35.976Z,10.13
2018-06-20T04:21:45.985Z,10.21
2018-06-20T04:22:55.986Z,10.15
2018-06-20T04:24:05.759Z,10.17
2018-06-20T04:25:15.769Z,10.15
2018-06-20T04:26:25.780Z,10.21
2018-06-20T04:27:35.528Z,10.13
2018-06-20T04:28:45.530Z,10.15
2018-06-20T04:29:55.265Z,10.13
2018-06-20T04:31:05.031Z,10.1
2018-06-20T04:32:14.509Z,10.2
2018-06-20T04:33:24.236Z,10.33
2018-06-20T04:34:33.775Z,10.27
2018-06-20T04:35:44.068Z,10.3
2018-06-20T04:36:53.536Z,10.42
2018-06-20T04:38:03.539Z,10.46
2018-06-20T04:39:13.541Z,10.42
2018-06-20T04:40:23.550Z,10.48
2018-06-20T04:41:33.549Z,10.61
2018-06-20T04:42:43.549Z,10.55
2018-06-20T04:43:53.293Z,10.67
2018-06-20T04:45:03.040Z,10.75
2018-06-20T04:46:12.791Z,10.82
2018-06-20T04:47:22.534Z,10.86
2018-06-20T04:48:32.006Z,10.87
2018-06-20T04:49:41.748Z,10.9
2018-06-20T04:50:51.486Z,11.02
2018-06-20T04:52:01.226Z,11.08
2018-06-20T04:53:11.027Z,11.05
2018-06-20T04:54:21.031Z,11.2
2018-06-20T04:55:30.840Z,11.23
2018-06-20T04:56:40.658Z,11.23
2018-06-20T04:57:50.128Z,11.3
2018-06-20T04:59:00.147Z,11.27
2018-06-20T05:00:09.905Z,11.34
2018-06-20T05:01:19.382Z,11.43
2018-06-20T05:02:28.586Z,11.43
2018-06-20T05:03:37.790Z,11.45
2018-06-20T05:04:47.263Z,11.51
2018-06-20T05:05:57.006Z,11.44
2018-06-20T05:07:07.014Z,11.58
2018-06-20T05:08:17.023Z,11.45
2018-06-20T05:09:26.497Z,11.49
2018-06-20T05:10:36.251Z,11.55
2018-06-20T05:11:46.035Z,11.56
2018-06-20T05:12:55.512Z,11.52
2018-06-20T05:14:05.517Z,11.58
2018-06-20T05:15:15.250Z,11.6
2018-06-20T05:16:24.744Z,11.63
2018-06-20T05:17:34.750Z,11.6
2018-06-20T05:18:44.487Z,11.6
2018-06-20T05:19:54.222Z,11.63
2018-06-20T05:21:03.437Z,11.59
2018-06-20T05:22:13.191Z,11.62
2018-06-20T05:23:23.205Z,11.77
2018-06-20T05:24:33.211Z,11.77
2018-06-20T05:25:43.215Z,11.7
2018-06-20T05:26:52.689Z,11.86
2018-06-20T05:28:02.703Z,11.78
2018-06-20T05:29:12.177Z,11.85
2018-06-20T05:30:21.378Z,11.88
2018-06-20T05:31:31.389Z,11.89
2018-06-20T05:32:41.397Z,11.93
2018-06-20T05:33:50.964Z,11.93
2018-06-20T05:35:00.441Z,12
2018-06-20T05:36:10.191Z,11.99
2018-06-20T05:37:19.939Z,12
2018-06-20T05:38:29.944Z,12
2018-06-20T05:39:39.412Z,12
2018-06-20T05:40:49.426Z,12.07
2018-06-20T05:41:59.497Z,12.15
2018-06-20T05:43:08.903Z,12.1
2018-06-20T05:44:18.641Z,12.18
2018-06-20T05:45:28.642Z,12.12
2018-06-20T05:46:38.657Z,12.21
2018-06-20T05:47:48.398Z,12.17
2018-06-20T05:48:58.414Z,12.21
2018-06-20T05:50:08.431Z,12.14
2018-06-20T05:51:18.183Z,12.2
2018-06-20T05:52:28.196Z,12.17
2018-06-20T05:53:38.201Z,12.21
2018-06-20T05:54:48.284Z,12.21
2018-06-20T05:55:58.297Z,12.32
2018-06-20T05:57:07.775Z,12.26
2018-06-20T05:58:17.513Z,12.18
2018-06-20T05:59:27.518Z,12.2
2018-06-20T06:00:37.537Z,12.18
2018-06-20T06:01:47.286Z,12.32
2018-06-20T06:02:57.290Z,12.3
2018-06-20T06:04:07.301Z,12.33
2018-06-20T06:05:17.322Z,12.3
2018-06-20T06:06:27.400Z,12.32
2018-06-20T06:07:37.405Z,12.33
2018-06-20T06:08:46.879Z,12.26
2018-06-20T06:09:56.883Z,12.3
2018-06-20T06:11:06.092Z,12.23
2018-06-20T06:12:15.832Z,12.14
2018-06-20T06:13:25.303Z,12.07
2018-06-20T06:14:34.841Z,12.15
2018-06-20T06:15:44.856Z,12.03
2018-06-20T06:16:55.165Z,12.02
2018-06-20T06:18:05.069Z,12.05
2018-06-20T06:19:14.809Z,12.03
2018-06-20T06:20:24.554Z,11.95
2018-06-20T06:21:34.557Z,11.96
2018-06-20T06:22:44.033Z,11.95
2018-06-20T06:23:53.242Z,11.89
2018-06-20T06:25:02.984Z,11.81
2018-06-20T06:26:12.476Z,11.91
2018-06-20T06:27:21.952Z,11.93
2018-06-20T06:28:31.689Z,11.78
2018-06-20T06:29:41.697Z,11.8
2018-06-20T06:30:51.444Z,11.77
2018-06-20T06:32:00.915Z,11.93
2018-06-20T06:33:10.657Z,11.89
2018-06-20T06:34:20.659Z,11.93
2018-06-20T06:35:30.667Z,11.96
2018-06-20T06:36:40.417Z,11.99
2018-06-20T06:37:50.035Z,12.07
2018-06-20T06:39:02.043Z,12.14
2018-06-20T06:40:12.054Z,12.21
2018-06-20T06:41:22.055Z,12.17
2018-06-20T06:42:31.798Z,12.25
2018-06-20T06:43:41.273Z,12.3
2018-06-20T06:44:51.284Z,12.36
2018-06-20T06:46:01.026Z,12.4
2018-06-20T06:47:10.499Z,12.44
2018-06-20T06:48:20.507Z,12.48
2018-06-20T06:49:30.590Z,12.51
2018-06-20T06:50:40.487Z,12.51
2018-06-20T06:51:50.508Z,12.47
2018-06-20T06:53:00.568Z,12.65
2018-06-20T06:54:10.578Z,12.69
2018-06-20T06:55:20.136Z,12.65
2018-06-20T06:56:31.355Z,12.62
2018-06-20T06:57:41.362Z,12.45
2018-06-20T06:58:51.108Z,12.53
2018-06-20T07:00:00.863Z,12.5
2018-06-20T07:01:10.869Z,12.48
2018-06-20T07:02:20.624Z,12.43
2018-06-20T07:03:30.636Z,12.48
2018-06-20T07:04:40.128Z,12.47
2018-06-20T07:05:50.138Z,12.53
2018-06-20T07:07:00.155Z,12.39
2018-06-20T07:08:09.632Z,12.3
2018-06-20T07:09:19.791Z,12.37
2018-06-20T07:10:29.964Z,12.33
2018-06-20T07:11:39.441Z,12.33
2018-06-20T07:12:49.440Z,12.4
2018-06-20T07:13:58.967Z,12.37
2018-06-20T07:15:08.706Z,12.5
2018-06-20T07:16:18.723Z,12.5
2018-06-20T07:17:28.514Z,12.47
2018-06-20T07:18:38.519Z,12.5
2018-06-20T07:19:47.756Z,12.57
2018-06-20T07:20:57.766Z,12.63
2018-06-20T07:22:07.779Z,12.63
2018-06-20T07:23:17.784Z,12.51
2018-06-20T07:24:27.471Z,12.57
2018-06-20T07:25:37.628Z,12.66
2018-06-20T07:26:47.104Z,12.68
2018-06-20T07:27:56.579Z,12.66
2018-06-20T07:29:06.324Z,12.63
2018-06-20T07:30:15.915Z,12.54
2018-06-20T07:31:25.357Z,12.5
2018-06-20T07:32:35.100Z,12.65
2018-06-20T07:33:44.844Z,12.62
2018-06-20T07:34:54.857Z,12.62
2018-06-20T07:36:04.822Z,12.63
2018-06-20T07:37:14.703Z,12.54
2018-06-20T07:38:24.709Z,12.5
2018-06-20T07:39:34.454Z,12.5
2018-06-20T07:40:44.199Z,12.65
2018-06-20T07:41:54.207Z,12.61
2018-06-20T07:43:03.991Z,12.61
2018-06-20T07:44:13.736Z,12.5
2018-06-20T07:45:23.749Z,12.62
2018-06-20T07:46:33.757Z,12.62
2018-06-20T07:47:43.831Z,12.65
2018-06-20T07:48:53.948Z,12.61
2018-06-20T07:50:04.018Z,12.63
2018-06-20T07:51:13.497Z,12.66
2018-06-20T07:52:23.504Z,12.7
2018-06-20T07:53:32.979Z,12.58
2018-06-20T07:54:42.712Z,12.65
2018-06-20T07:55:52.478Z,12.62
2018-06-20T07:57:01.958Z,12.66
2018-06-20T07:58:11.972Z,12.8
2018-06-20T07:59:21.711Z,12.86
2018-06-20T08:00:31.716Z,12.88
2018-06-20T08:01:41.187Z,13.01
2018-06-20T08:02:50.937Z,13.02
2018-06-20T08:04:00.674Z,12.99
2018-06-20T08:05:10.416Z,13.01
2018-06-20T08:06:20.406Z,13.05
2018-06-20T08:07:30.794Z,13.05
2018-06-20T08:08:40.540Z,13.11
2018-06-20T08:09:50.552Z,13.06
2018-06-20T08:11:00.301Z,13.06
2018-06-20T08:12:09.775Z,13.09
2018-06-20T08:13:19.509Z,12.98
2018-06-20T08:14:28.990Z,13.08
2018-06-20T08:15:38.728Z,13.08
2018-06-20T08:16:47.679Z,13.09
2018-06-20T08:17:57.207Z,13.08
2018-06-20T08:19:06.677Z,13.13
2018-06-20T08:20:16.153Z,13.09
2018-06-20T08:21:25.887Z,12.95
2018-06-20T08:22:35.625Z,12.94
2018-06-20T08:23:45.369Z,12.98
2018-06-20T08:24:55.387Z,13.01
2018-06-20T08:26:04.863Z,13.03
2018-06-20T08:27:14.336Z,13.01
2018-06-20T08:28:24.072Z,12.88
2018-06-20T08:29:33.812Z,12.9
2018-06-20T08:30:43.291Z,12.86
2018-06-20T08:31:53.305Z,12.88
2018-06-20T08:33:03.045Z,12.8
2018-06-20T08:34:12.530Z,12.65
2018-06-20T08:35:22.890Z,12.68
2018-06-20T08:36:32.903Z,12.68
2018-06-20T08:37:42.636Z,12.65
2018-06-20T08:38:52.373Z,12.76
2018-06-20T08:40:02.374Z,12.75
2018-06-20T08:41:11.860Z,12.8
2018-06-20T08:42:21.923Z,12.87
2018-06-20T08:43:31.690Z,12.9
2018-06-20T08:44:41.430Z,12.9
2018-06-20T08:45:51.166Z,12.94
2018-06-20T08:47:00.901Z,12.91
2018-06-20T08:48:10.644Z,12.95
2018-06-20T08:49:20.656Z,13.01
2018-06-20T08:50:30.670Z,12.94
2018-06-20T08:51:40.681Z,12.94
2018-06-20T08:52:50.692Z,12.98
2018-06-20T08:54:00.180Z,12.88
2018-06-20T08:55:09.658Z,12.87
2018-06-20T08:56:19.134Z,12.93
2018-06-20T08:57:28.885Z,12.93
2018-06-20T08:58:38.621Z,12.87
2018-06-20T08:59:48.357Z,12.84
2018-06-20T09:00:57.831Z,12.98
2018-06-20T09:02:07.971Z,12.98
2018-06-20T09:03:18.117Z,12.99
2018-06-20T09:04:27.589Z,12.95
2018-06-20T09:05:37.347Z,13.01
2018-06-20T09:06:47.354Z,13.09
2018-06-20T09:07:57.088Z,13.08
2018-06-20T09:09:07.101Z,13.12
2018-06-20T09:10:16.633Z,13.2
2018-06-20T09:11:26.414Z,13.27
2018-06-20T09:12:36.154Z,13.28
2018-06-20T09:13:46.156Z,13.39
2018-06-20T09:14:56.163Z,13.36
2018-06-20T09:16:06.193Z,13.52
2018-06-20T09:17:15.398Z,13.58
2018-06-20T09:18:25.236Z,13.6
2018-06-20T09:19:34.980Z,13.67
2018-06-20T09:20:44.997Z,13.71
2018-06-20T09:21:54.788Z,13.65
2018-06-20T09:23:04.303Z,13.61
2018-06-20T09:24:13.778Z,13.62
2018-06-20T09:25:23.795Z,13.62
2018-06-20T09:26:33.543Z,13.65
2018-06-20T09:27:43.283Z,13.62
2018-06-20T09:28:52.781Z,13.62
2018-06-20T09:30:02.947Z,13.67
2018-06-20T09:31:13.197Z,13.75
2018-06-20T09:32:23.208Z,13.75
2018-06-20T09:33:33.220Z,13.7
2018-06-20T09:34:42.962Z,13.82
2018-06-20T09:35:52.704Z,13.95
2018-06-20T09:37:02.453Z,13.86
2018-06-20T09:38:11.933Z,13.94
2018-06-20T09:39:21.673Z,13.91
2018-06-20T09:40:30.881Z,13.83
2018-06-20T09:41:40.616Z,13.8
2018-06-20T09:42:50.620Z,14.01
2018-06-20T09:44:00.362Z,14
2018-06-20T09:45:09.616Z,13.98
2018-06-20T09:46:19.356Z,14.03
2018-06-20T09:47:29.366Z,14.05
2018-06-20T09:48:39.372Z,14.01
2018-06-20T09:49:48.580Z,14.19
2018-06-20T09:50:58.677Z,14.15
2018-06-20T09:52:08.702Z,14.16
2018-06-20T09:53:18.175Z,14.15
2018-06-20T09:54:27.501Z,14.15
2018-06-20T09:55:37.509Z,14.08
2018-06-20T09:56:47.573Z,14.16
2018-06-20T09:57:57.542Z,14.04
2018-06-20T09:59:07.181Z,14.04
2018-06-20T10:00:17.191Z,14.15
2018-06-20T10:01:27.045Z,14.16
2018-06-20T10:02:36.539Z,14.12
2018-06-20T10:03:45.748Z,14.01
2018-06-20T10:04:55.753Z,14.16
2018-06-20T10:06:05.835Z,14.19
2018-06-20T10:07:15.582Z,14.2
2018-06-20T10:08:25.593Z,14.03
2018-06-20T10:09:35.618Z,14.19
2018-06-20T10:10:45.662Z,14.25
2018-06-20T10:11:55.404Z,14.25
2018-06-20T10:13:05.474Z,14.41
2018-06-20T10:14:14.947Z,14.36
2018-06-20T10:15:24.957Z,14.44
2018-06-20T10:16:34.976Z,14.37
2018-06-20T10:17:44.725Z,14.4
2018-06-20T10:18:53.929Z,14.49
2018-06-20T10:20:03.677Z,14.41
2018-06-20T10:21:13.675Z,14.52
2018-06-20T10:22:24.306Z,14.61
2018-06-20T10:23:33.807Z,14.59
2018-06-20T10:24:43.549Z,14.59
2018-06-20T10:25:53.557Z,14.66
2018-06-20T10:27:03.297Z,14.53
2018-06-20T10:28:13.056Z,14.53
2018-06-20T10:29:22.800Z,14.58
2018-06-20T10:30:32.813Z,14.63
2018-06-20T10:31:42.286Z,14.63
2018-06-20T10:32:52.024Z,14.55
2018-06-20T10:34:02.030Z,14.44
2018-06-20T10:35:11.837Z,14.55
2018-06-20T10:36:21.575Z,14.49
2018-06-20T10:37:31.326Z,14.4
2018-06-20T10:38:41.333Z,14.44
2018-06-20T10:39:50.837Z,14.41
2018-06-20T10:41:01.018Z,14.4
2018-06-20T10:42:10.227Z,14.37
2018-06-20T10:43:19.706Z,14.49
2018-06-20T10:44:29.713Z,14.44
2018-06-20T10:45:39.453Z,14.38
2018-06-20T10:46:49.456Z,14.51
2018-06-20T10:47:59.468Z,14.34
2018-06-20T10:49:09.211Z,14.48
2018-06-20T10:50:18.426Z,14.41
2018-06-20T10:51:28.168Z,14.38
2018-06-20T10:52:38.181Z,14.38
2018-06-20T10:53:47.670Z,14.38
2018-06-20T10:54:57.679Z,14.44
2018-06-20T10:56:07.695Z,14.52
2018-06-20T10:57:17.169Z,14.51
2018-06-20T10:58:27.182Z,14.49
2018-06-20T10:59:36.930Z,14.52
2018-06-20T11:00:46.558Z,14.53
2018-06-20T11:01:56.576Z,14.55
2018-06-20T11:03:06.055Z,14.55
2018-06-20T11:04:16.069Z,14.48
2018-06-20T11:05:26.080Z,14.58
2018-06-20T11:06:36.095Z,14.53
2018-06-20T11:07:45.831Z,14.52
2018-06-20T11:08:55.574Z,14.62
2018-06-20T11:10:05.590Z,14.7
2018-06-20T11:11:15.117Z,14.63
2018-06-20T11:12:25.135Z,14.73
2018-06-20T11:13:34.890Z,14.66
2018-06-20T11:14:44.630Z,14.61
2018-06-20T11:15:54.379Z,14.66
2018-06-20T11:17:04.393Z,14.7
2018-06-20T11:18:14.444Z,14.67
2018-06-20T11:19:24.457Z,14.63
2018-06-20T11:20:34.197Z,14.73
2018-06-20T11:21:43.942Z,14.89
2018-06-20T11:22:53.417Z,14.89
2018-06-20T11:24:03.157Z,14.92
2018-06-20T11:25:12.907Z,14.82
2018-06-20T11:26:22.434Z,14.94
2018-06-20T11:27:32.175Z,14.97
2018-06-20T11:28:41.652Z,15.04
2018-06-20T11:29:51.145Z,15.22
2018-06-20T11:31:00.906Z,15.15
2018-06-20T11:32:10.756Z,15.44
2018-06-20T11:33:20.774Z,15.55
2018-06-20T11:34:30.250Z,15.75
2018-06-20T11:35:40.260Z,15.85
2018-06-20T11:36:50.273Z,15.84
2018-06-20T11:37:59.747Z,15.73
2018-06-20T11:39:09.486Z,15.69
2018-06-20T11:40:19.275Z,15.72
2018-06-20T11:41:29.078Z,15.66
2018-06-20T11:42:39.086Z,15.69
2018-06-20T11:43:49.104Z,15.72
2018-06-20T11:44:59.118Z,15.67
2018-06-20T11:46:08.860Z,15.72
2018-06-20T11:47:18.701Z,15.78
2018-06-20T11:48:28.720Z,15.76
2018-06-20T11:49:38.729Z,15.8
2018-06-20T11:50:48.476Z,15.81
2018-06-20T11:51:57.955Z,15.87
2018-06-20T11:53:07.446Z,15.96
2018-06-20T11:54:17.191Z,15.88
2018-06-20T11:55:27.200Z,15.88
2018-06-20T11:56:36.690Z,15.94
2018-06-20T11:57:46.435Z,15.87
2018-06-20T11:58:56.178Z,15.96
2018-06-20T12:00:05.924Z,15.92
2018-06-20T12:01:15.407Z,15.91
2018-06-20T12:02:25.149Z,15.92
2018-06-20T12:03:35.217Z,15.84
2018-06-20T12:04:44.959Z,15.91
2018-06-20T12:05:54.701Z,15.98
2018-06-20T12:07:04.452Z,15.96
2018-06-20T12:08:14.469Z,16.12
2018-06-20T12:09:24.219Z,16.18
2018-06-20T12:10:33.696Z,16.21
2018-06-20T12:11:43.759Z,16.41
2018-06-20T12:12:53.769Z,16.55
2018-06-20T12:14:03.515Z,16.94
2018-06-20T12:15:13.265Z,17.24
2018-06-20T12:16:23.282Z,17.47
2018-06-20T12:17:33.028Z,17.47
2018-06-20T12:18:43.045Z,17.14
2018-06-20T12:19:53.062Z,17.09
2018-06-20T12:21:03.075Z,16.84
2018-06-20T12:22:12.570Z,16.83
2018-06-20T12:23:22.320Z,17.22
2018-06-20T12:24:32.333Z,17.5
2018-06-20T12:25:41.552Z,17.86
2018-06-20T12:26:51.307Z,18.36
2018-06-20T12:28:01.338Z,18.74
2018-06-20T12:29:11.159Z,19.04
2018-06-20T12:30:21.309Z,19.47
2018-06-20T12:31:31.329Z,19.64
2018-06-20T12:32:41.346Z,19.78
2018-06-20T12:33:51.462Z,19.89
2018-06-20T12:35:01.209Z,19.94
2018-06-20T12:36:10.424Z,20.11
2018-06-20T12:37:20.439Z,20.29
2018-06-20T12:38:30.190Z,20.46
2018-06-20T12:39:39.406Z,20.49
2018-06-20T12:40:49.550Z,20.63
2018-06-20T12:41:59.611Z,21.1
2018-06-20T12:43:09.671Z,21.54
2018-06-20T12:44:19.434Z,21.8
2018-06-20T12:45:29.044Z,22.33
2018-06-20T12:46:38.798Z,22.58
2018-06-20T12:47:48.560Z,22.78
2018-06-20T12:48:58.048Z,22.43
2018-06-20T12:50:08.120Z,22.52
2018-06-20T12:51:18.140Z,22.26
2018-06-20T12:52:28.218Z,22.16
2018-06-20T12:53:37.769Z,22.4
2018-06-20T12:54:47.789Z,22.46
2018-06-20T12:55:57.807Z,22.47
2018-06-20T12:57:06.495Z,22.65
2018-06-20T12:58:16.051Z,23.23
2018-06-20T12:59:25.945Z,23.55
2018-06-20T13:00:35.972Z,23.96
2018-06-20T13:01:45.990Z,24.58
2018-06-20T13:02:55.746Z,25.01
2018-06-20T13:04:05.958Z,25.59
2018-06-20T13:05:15.831Z,25.92
2018-06-20T13:06:25.855Z,26.23
2018-06-20T13:07:35.881Z,26.19
2018-06-20T13:08:45.640Z,26.64
2018-06-20T13:09:55.668Z,26.51
2018-06-20T13:11:05.425Z,26.01
2018-06-20T13:12:15.447Z,26.44
2018-06-20T13:13:25.202Z,26.42
2018-06-20T13:14:35.223Z,26.03
2018-06-20T13:15:44.976Z,26.06
2018-06-20T13:16:55.000Z,26.26
2018-06-20T13:18:05.032Z,26.3
2018-06-20T13:19:14.528Z,26.37
2018-06-20T13:20:24.559Z,26.04
2018-06-20T13:21:34.792Z,26.07
2018-06-20T13:22:45.109Z,26.18
2018-06-20T13:23:54.729Z,26.79
2018-06-20T13:25:04.590Z,27.3
2018-06-20T13:26:14.662Z,27.78
2018-06-20T13:27:24.156Z,28.28
2018-06-20T13:28:34.246Z,28.28
2018-06-20T13:29:44.058Z,28.37
2018-06-20T13:30:53.874Z,28.59
2018-06-20T13:32:03.367Z,27.5
2018-06-20T13:33:12.861Z,26.01
2018-06-20T13:34:22.624Z,25.16
2018-06-20T13:35:32.663Z,24.82
2018-06-20T13:36:42.432Z,24.74
2018-06-20T13:37:51.651Z,24.92
2018-06-20T13:39:01.679Z,24.99
2018-06-20T13:40:11.168Z,24.78
2018-06-20T13:41:21.191Z,24.01
2018-06-20T13:42:30.676Z,23.76
2018-06-20T13:43:40.430Z,23.86
2018-06-20T13:44:50.448Z,24.13
2018-06-20T13:46:00.466Z,24.48
2018-06-20T13:47:10.215Z,24.97
2018-06-20T13:48:19.968Z,25.34
2018-06-20T13:49:29.720Z,25.83
2018-06-20T13:50:39.473Z,25.88
2018-06-20T13:51:49.495Z,26.04
2018-06-20T13:52:59.514Z,26.16
2018-06-20T13:54:09.265Z,25.66
2018-06-20T13:55:18.770Z,25.56
2018-06-20T13:56:28.254Z,24.97
2018-06-20T13:57:38.272Z,24.21
2018-06-20T13:58:48.032Z,23.36
2018-06-20T13:59:58.049Z,22.56
2018-06-20T14:01:07.801Z,22.23
2018-06-20T14:02:17.288Z,22.07
2018-06-20T14:03:27.037Z,22.03
2018-06-20T14:04:36.804Z,21.75
2018-06-20T14:05:46.824Z,21.56
2018-06-20T14:06:56.843Z,21.3
2018-06-20T14:08:06.616Z,21.25
2018-06-20T14:09:16.366Z,21.19
2018-06-20T14:10:26.117Z,21
2018-06-20T14:11:35.607Z,20.8
2018-06-20T14:12:45.362Z,20.37
2018-06-20T14:13:55.383Z,20.29
2018-06-20T14:15:04.867Z,20.52
2018-06-20T14:16:14.903Z,20.96
2018-06-20T14:17:24.930Z,21.54
2018-06-20T14:18:36.691Z,22.12
2018-06-20T14:19:46.720Z,22.44
2018-06-20T14:20:56.199Z,22.92
2018-06-20T14:22:05.681Z,23.39
2018-06-20T14:23:15.707Z,23.69
2018-06-20T14:24:25.718Z,23.82
2018-06-20T14:25:35.469Z,23.67
2018-06-20T14:26:45.489Z,23.66
2018-06-20T14:27:55.252Z,23.63
2018-06-20T14:29:05.004Z,23.76
2018-06-20T14:30:14.755Z,24.03
2018-06-20T14:31:24.553Z,24.13
2018-06-20T14:32:34.036Z,24.29
2018-06-20T14:33:44.061Z,24.04
2018-06-20T14:34:53.552Z,23.85
2018-06-20T14:36:03.308Z,23.74
2018-06-20T14:37:13.058Z,24
2018-06-20T14:38:23.080Z,24.13
2018-06-20T14:39:33.106Z,24.41
2018-06-20T14:40:43.118Z,24.22
2018-06-20T14:41:53.142Z,24.21
2018-06-20T14:43:03.171Z,24.1
2018-06-20T14:44:12.390Z,24.03
2018-06-20T14:45:22.153Z,23.88
2018-06-20T14:46:31.641Z,23.56
2018-06-20T14:47:41.709Z,23.21
2018-06-20T14:48:51.196Z,23.13
2018-06-20T14:50:01.215Z,22.88
2018-06-20T14:51:10.978Z,22.65
2018-06-20T14:52:21.064Z,22.65
2018-06-20T14:53:30.552Z,22.52
2018-06-20T14:54:40.300Z,21.81
2018-06-20T14:55:50.052Z,21.7
2018-06-20T14:57:00.081Z,21.47
2018-06-20T14:58:09.566Z,21.08
2018-06-20T14:59:19.596Z,21.01
2018-06-20T15:00:29.363Z,20.63
2018-06-20T15:01:39.379Z,20.29
2018-06-20T15:02:49.401Z,19.96
2018-06-20T15:03:59.154Z,19.78
2018-06-20T15:05:09.178Z,19.41
2018-06-20T15:06:19.201Z,19.22
2018-06-20T15:07:29.221Z,19.08
2018-06-20T15:08:38.972Z,19.04
2018-06-20T15:09:48.988Z,18.89
2018-06-20T15:10:58.995Z,18.81
2018-06-20T15:12:08.748Z,18.81